sensor_id;sensor_type;location;lat;lon;timestamp;P1;durP1;ratioP1;P2;durP2;ratioP2
70106;SDS011;57473;37.508;15.080;2023-05-15T00:01:23;46.28;;;13.55;;
70106;SDS011;57473;37.508;15.080;2023-05-15T00:03:51;47.58;;;12.13;;
70106;SDS011;57473;37.508;15.080;2023-05-15T00:06:18;40.17;;;12.93;;
70106;SDS011;57473;37.508;15.080;2023-05-15T00:08:46;46.85;;;11.50;;
70106;SDS011;57473;37.508;15.080;2023-05-15T00:11:13;38.60;;;13.00;;
70106;SDS011;57473;37.508;15.080;2023-05-15T00:13:41;36.10;;;11.20;;
70106;SDS011;57473;37.508;15.080;2023-05-15T00:16:08;39.53;;;11.77;;
70106;SDS011;57473;37.508;15.080;2023-05-15T00:18:36;42.90;;;12.38;;
70106;SDS011;57473;37.508;15.080;2023-05-15T00:21:03;40.08;;;10.77;;
70106;SDS011;57473;37.508;15.080;2023-05-15T00:23:30;38.63;;;11.38;;
70106;SDS011;57473;37.508;15.080;2023-05-15T00:25:58;40.05;;;11.20;;
70106;SDS011;57473;37.508;15.080;2023-05-15T00:28:25;41.13;;;10.77;;
70106;SDS011;57473;37.508;15.080;2023-05-15T00:30:54;42.97;;;10.50;;
70106;SDS011;57473;37.508;15.080;2023-05-15T00:33:22;49.25;;;12.70;;
70106;SDS011;57473;37.508;15.080;2023-05-15T00:35:49;48.90;;;11.88;;
70106;SDS011;57473;37.508;15.080;2023-05-15T00:38:16;44.53;;;11.77;;
70106;SDS011;57473;37.508;15.080;2023-05-15T00:40:44;37.63;;;10.57;;
70106;SDS011;57473;37.508;15.080;2023-05-15T00:43:12;37.13;;;11.57;;
70106;SDS011;57473;37.508;15.080;2023-05-15T00:45:42;48.90;;;11.93;;
70106;SDS011;57473;37.508;15.080;2023-05-15T00:48:11;54.00;;;12.70;;
70106;SDS011;57473;37.508;15.080;2023-05-15T00:50:39;48.00;;;13.32;;
70106;SDS011;57473;37.508;15.080;2023-05-15T00:53:07;51.10;;;12.68;;
70106;SDS011;57473;37.508;15.080;2023-05-15T00:55:35;55.65;;;13.48;;
70106;SDS011;57473;37.508;15.080;2023-05-15T00:58:03;48.28;;;12.60;;
70106;SDS011;57473;37.508;15.080;2023-05-15T01:00:32;53.45;;;12.95;;
70106;SDS011;57473;37.508;15.080;2023-05-15T01:02:59;40.53;;;11.50;;
70106;SDS011;57473;37.508;15.080;2023-05-15T01:05:27;44.63;;;13.00;;
70106;SDS011;57473;37.508;15.080;2023-05-15T01:07:56;43.85;;;12.52;;
70106;SDS011;57473;37.508;15.080;2023-05-15T01:10:33;44.20;;;12.23;;
70106;SDS011;57473;37.508;15.080;2023-05-15T01:13:01;45.75;;;11.65;;
70106;SDS011;57473;37.508;15.080;2023-05-15T01:15:31;47.90;;;11.68;;
70106;SDS011;57473;37.508;15.080;2023-05-15T01:17:59;37.83;;;11.82;;
70106;SDS011;57473;37.508;15.080;2023-05-15T01:20:27;49.08;;;12.50;;
70106;SDS011;57473;37.508;15.080;2023-05-15T01:23:07;35.15;;;11.75;;
70106;SDS011;57473;37.508;15.080;2023-05-15T01:28:30;39.95;;;11.27;;
70106;SDS011;57473;37.508;15.080;2023-05-15T01:31:08;38.88;;;9.85;;
70106;SDS011;57473;37.508;15.080;2023-05-15T01:33:49;47.67;;;12.50;;
70106;SDS011;57473;37.508;15.080;2023-05-15T01:36:23;47.90;;;10.35;;
70106;SDS011;57473;37.508;15.080;2023-05-15T01:39:00;46.47;;;12.43;;
70106;SDS011;57473;37.508;15.080;2023-05-15T01:41:30;48.90;;;11.98;;
70106;SDS011;57473;37.508;15.080;2023-05-15T01:44:18;40.85;;;11.63;;
70106;SDS011;57473;37.508;15.080;2023-05-15T01:46:52;49.15;;;11.80;;
70106;SDS011;57473;37.508;15.080;2023-05-15T01:49:23;51.45;;;12.50;;
70106;SDS011;57473;37.508;15.080;2023-05-15T01:52:09;42.38;;;11.35;;
70106;SDS011;57473;37.508;15.080;2023-05-15T01:54:48;55.90;;;13.63;;
70106;SDS011;57473;37.508;15.080;2023-05-15T01:57:16;46.00;;;11.20;;
70106;SDS011;57473;37.508;15.080;2023-05-15T01:59:45;46.38;;;12.82;;
70106;SDS011;57473;37.508;15.080;2023-05-15T02:02:13;47.42;;;11.75;;
70106;SDS011;57473;37.508;15.080;2023-05-15T02:04:42;43.67;;;10.10;;
70106;SDS011;57473;37.508;15.080;2023-05-15T02:07:11;44.42;;;10.45;;
70106;SDS011;57473;37.508;15.080;2023-05-15T02:09:40;48.45;;;12.50;;
70106;SDS011;57473;37.508;15.080;2023-05-15T02:12:09;51.25;;;11.20;;
70106;SDS011;57473;37.508;15.080;2023-05-15T02:14:37;40.72;;;10.45;;
70106;SDS011;57473;37.508;15.080;2023-05-15T02:17:06;49.20;;;11.00;;
70106;SDS011;57473;37.508;15.080;2023-05-15T02:19:35;55.08;;;11.73;;
70106;SDS011;57473;37.508;15.080;2023-05-15T02:22:02;57.65;;;11.73;;
70106;SDS011;57473;37.508;15.080;2023-05-15T02:24:32;50.97;;;12.25;;
70106;SDS011;57473;37.508;15.080;2023-05-15T02:27:04;51.65;;;14.00;;
70106;SDS011;57473;37.508;15.080;2023-05-15T02:29:41;50.63;;;12.73;;
70106;SDS011;57473;37.508;15.080;2023-05-15T02:37:39;50.97;;;12.30;;
70106;SDS011;57473;37.508;15.080;2023-05-15T02:40:11;49.88;;;12.88;;
70106;SDS011;57473;37.508;15.080;2023-05-15T02:42:40;49.50;;;13.27;;
70106;SDS011;57473;37.508;15.080;2023-05-15T02:45:11;55.88;;;12.80;;
70106;SDS011;57473;37.508;15.080;2023-05-15T02:47:39;58.10;;;13.15;;
70106;SDS011;57473;37.508;15.080;2023-05-15T02:50:08;39.72;;;13.45;;
70106;SDS011;57473;37.508;15.080;2023-05-15T02:52:36;50.63;;;15.50;;
70106;SDS011;57473;37.508;15.080;2023-05-15T02:55:05;51.45;;;14.52;;
70106;SDS011;57473;37.508;15.080;2023-05-15T02:57:32;46.95;;;13.25;;
70106;SDS011;57473;37.508;15.080;2023-05-15T03:00:00;46.50;;;14.15;;
70106;SDS011;57473;37.508;15.080;2023-05-15T03:02:27;45.75;;;12.50;;
70106;SDS011;57473;37.508;15.080;2023-05-15T03:04:55;40.25;;;12.52;;
70106;SDS011;57473;37.508;15.080;2023-05-15T03:07:22;39.47;;;12.00;;
70106;SDS011;57473;37.508;15.080;2023-05-15T03:09:50;42.58;;;13.18;;
70106;SDS011;57473;37.508;15.080;2023-05-15T03:12:17;42.25;;;12.68;;
70106;SDS011;57473;37.508;15.080;2023-05-15T03:14:44;41.10;;;11.85;;
70106;SDS011;57473;37.508;15.080;2023-05-15T03:17:11;37.08;;;12.73;;
70106;SDS011;57473;37.508;15.080;2023-05-15T03:19:39;36.85;;;11.70;;
70106;SDS011;57473;37.508;15.080;2023-05-15T03:22:06;66.70;;;12.75;;
70106;SDS011;57473;37.508;15.080;2023-05-15T03:24:34;45.95;;;13.10;;
70106;SDS011;57473;37.508;15.080;2023-05-15T03:27:01;45.33;;;12.82;;
70106;SDS011;57473;37.508;15.080;2023-05-15T03:29:29;37.97;;;12.55;;
70106;SDS011;57473;37.508;15.080;2023-05-15T03:31:56;42.33;;;11.20;;
70106;SDS011;57473;37.508;15.080;2023-05-15T03:34:24;45.67;;;12.65;;
70106;SDS011;57473;37.508;15.080;2023-05-15T03:36:51;34.00;;;11.35;;
70106;SDS011;57473;37.508;15.080;2023-05-15T03:39:19;26.08;;;10.48;;
70106;SDS011;57473;37.508;15.080;2023-05-15T03:41:47;42.17;;;11.48;;
70106;SDS011;57473;37.508;15.080;2023-05-15T03:44:14;37.10;;;12.65;;
70106;SDS011;57473;37.508;15.080;2023-05-15T03:46:42;42.95;;;11.35;;
70106;SDS011;57473;37.508;15.080;2023-05-15T03:49:12;31.70;;;9.85;;
70106;SDS011;57473;37.508;15.080;2023-05-15T03:51:39;27.95;;;8.70;;
70106;SDS011;57473;37.508;15.080;2023-05-15T03:54:07;37.78;;;9.93;;
70106;SDS011;57473;37.508;15.080;2023-05-15T03:56:34;26.25;;;8.43;;
70106;SDS011;57473;37.508;15.080;2023-05-15T03:59:01;29.88;;;8.63;;
70106;SDS011;57473;37.508;15.080;2023-05-15T04:01:29;31.20;;;10.70;;
70106;SDS011;57473;37.508;15.080;2023-05-15T04:03:57;102.70;;;41.40;;
70106;SDS011;57473;37.508;15.080;2023-05-15T04:06:24;65.65;;;27.17;;
70106;SDS011;57473;37.508;15.080;2023-05-15T04:08:51;35.92;;;11.45;;
70106;SDS011;57473;37.508;15.080;2023-05-15T04:11:19;29.58;;;9.88;;
70106;SDS011;57473;37.508;15.080;2023-05-15T04:13:48;30.10;;;8.95;;
70106;SDS011;57473;37.508;15.080;2023-05-15T04:16:15;30.48;;;8.90;;
70106;SDS011;57473;37.508;15.080;2023-05-15T04:18:43;34.67;;;9.52;;
70106;SDS011;57473;37.508;15.080;2023-05-15T04:21:10;33.92;;;9.82;;
70106;SDS011;57473;37.508;15.080;2023-05-15T04:23:37;38.58;;;15.82;;
70106;SDS011;57473;37.508;15.080;2023-05-15T04:26:07;35.40;;;15.25;;
70106;SDS011;57473;37.508;15.080;2023-05-15T04:28:34;41.28;;;12.13;;
70106;SDS011;57473;37.508;15.080;2023-05-15T04:31:02;32.65;;;11.55;;
70106;SDS011;57473;37.508;15.080;2023-05-15T04:33:29;32.47;;;10.27;;
70106;SDS011;57473;37.508;15.080;2023-05-15T04:35:57;31.02;;;10.50;;
70106;SDS011;57473;37.508;15.080;2023-05-15T04:38:24;32.60;;;10.05;;
70106;SDS011;57473;37.508;15.080;2023-05-15T04:40:52;26.33;;;8.82;;
70106;SDS011;57473;37.508;15.080;2023-05-15T04:43:19;30.98;;;10.18;;
70106;SDS011;57473;37.508;15.080;2023-05-15T04:45:46;33.60;;;8.75;;
70106;SDS011;57473;37.508;15.080;2023-05-15T04:48:14;45.70;;;10.73;;
70106;SDS011;57473;37.508;15.080;2023-05-15T04:50:41;41.50;;;10.27;;
70106;SDS011;57473;37.508;15.080;2023-05-15T04:53:08;36.95;;;9.40;;
70106;SDS011;57473;37.508;15.080;2023-05-15T04:55:36;41.45;;;8.98;;
70106;SDS011;57473;37.508;15.080;2023-05-15T04:58:03;27.33;;;8.77;;
70106;SDS011;57473;37.508;15.080;2023-05-15T05:00:30;29.55;;;7.28;;
70106;SDS011;57473;37.508;15.080;2023-05-15T05:02:58;29.52;;;7.07;;
70106;SDS011;57473;37.508;15.080;2023-05-15T05:05:25;27.15;;;6.07;;
70106;SDS011;57473;37.508;15.080;2023-05-15T05:07:53;26.10;;;6.30;;
70106;SDS011;57473;37.508;15.080;2023-05-15T05:10:20;26.25;;;5.85;;
70106;SDS011;57473;37.508;15.080;2023-05-15T05:12:47;23.77;;;5.32;;
70106;SDS011;57473;37.508;15.080;2023-05-15T05:15:15;23.10;;;5.70;;
70106;SDS011;57473;37.508;15.080;2023-05-15T05:17:42;22.58;;;5.20;;
70106;SDS011;57473;37.508;15.080;2023-05-15T05:20:10;19.70;;;5.53;;
70106;SDS011;57473;37.508;15.080;2023-05-15T05:22:38;29.35;;;5.75;;
70106;SDS011;57473;37.508;15.080;2023-05-15T05:25:06;26.83;;;6.38;;
70106;SDS011;57473;37.508;15.080;2023-05-15T05:27:34;23.05;;;6.43;;
70106;SDS011;57473;37.508;15.080;2023-05-15T05:30:01;18.02;;;5.05;;
70106;SDS011;57473;37.508;15.080;2023-05-15T05:32:29;29.23;;;6.40;;
70106;SDS011;57473;37.508;15.080;2023-05-15T05:34:56;23.38;;;6.07;;
70106;SDS011;57473;37.508;15.080;2023-05-15T05:37:24;19.73;;;5.72;;
70106;SDS011;57473;37.508;15.080;2023-05-15T05:39:52;23.80;;;5.93;;
70106;SDS011;57473;37.508;15.080;2023-05-15T05:42:20;30.08;;;6.20;;
70106;SDS011;57473;37.508;15.080;2023-05-15T05:44:47;27.60;;;6.93;;
70106;SDS011;57473;37.508;15.080;2023-05-15T05:47:14;31.00;;;8.88;;
70106;SDS011;57473;37.508;15.080;2023-05-15T05:49:43;41.45;;;9.30;;
70106;SDS011;57473;37.508;15.080;2023-05-15T05:52:13;30.13;;;8.55;;
70106;SDS011;57473;37.508;15.080;2023-05-15T05:54:42;35.95;;;8.15;;
70106;SDS011;57473;37.508;15.080;2023-05-15T05:57:11;36.70;;;8.40;;
70106;SDS011;57473;37.508;15.080;2023-05-15T05:59:40;32.60;;;8.95;;
70106;SDS011;57473;37.508;15.080;2023-05-15T06:02:07;38.95;;;9.88;;
70106;SDS011;57473;37.508;15.080;2023-05-15T06:04:35;36.10;;;8.13;;
70106;SDS011;57473;37.508;15.080;2023-05-15T06:07:03;42.22;;;10.45;;
70106;SDS011;57473;37.508;15.080;2023-05-15T06:09:30;38.53;;;10.32;;
70106;SDS011;57473;37.508;15.080;2023-05-15T06:11:58;45.55;;;10.82;;
70106;SDS011;57473;37.508;15.080;2023-05-15T06:14:26;37.17;;;10.27;;
70106;SDS011;57473;37.508;15.080;2023-05-15T06:16:53;36.17;;;9.55;;
70106;SDS011;57473;37.508;15.080;2023-05-15T06:19:21;36.30;;;10.15;;
70106;SDS011;57473;37.508;15.080;2023-05-15T06:21:48;46.53;;;11.25;;
70106;SDS011;57473;37.508;15.080;2023-05-15T06:24:16;40.38;;;10.48;;
70106;SDS011;57473;37.508;15.080;2023-05-15T06:26:44;40.50;;;11.27;;
70106;SDS011;57473;37.508;15.080;2023-05-15T06:29:11;36.92;;;9.52;;
70106;SDS011;57473;37.508;15.080;2023-05-15T06:31:39;31.23;;;10.13;;
70106;SDS011;57473;37.508;15.080;2023-05-15T06:34:06;36.20;;;10.20;;
70106;SDS011;57473;37.508;15.080;2023-05-15T06:36:33;47.10;;;10.60;;
70106;SDS011;57473;37.508;15.080;2023-05-15T06:39:01;36.88;;;11.02;;
70106;SDS011;57473;37.508;15.080;2023-05-15T06:41:28;39.05;;;11.05;;
70106;SDS011;57473;37.508;15.080;2023-05-15T06:43:56;42.47;;;11.40;;
70106;SDS011;57473;37.508;15.080;2023-05-15T06:46:25;38.05;;;10.02;;
70106;SDS011;57473;37.508;15.080;2023-05-15T06:48:52;33.28;;;10.82;;
70106;SDS011;57473;37.508;15.080;2023-05-15T06:51:19;39.17;;;11.07;;
70106;SDS011;57473;37.508;15.080;2023-05-15T06:53:47;34.40;;;9.88;;
70106;SDS011;57473;37.508;15.080;2023-05-15T06:56:14;35.40;;;10.43;;
70106;SDS011;57473;37.508;15.080;2023-05-15T06:58:41;43.88;;;11.82;;
70106;SDS011;57473;37.508;15.080;2023-05-15T07:01:09;34.85;;;10.80;;
70106;SDS011;57473;37.508;15.080;2023-05-15T07:03:36;48.05;;;11.27;;
70106;SDS011;57473;37.508;15.080;2023-05-15T07:06:03;37.28;;;10.15;;
70106;SDS011;57473;37.508;15.080;2023-05-15T07:08:31;47.47;;;12.77;;
70106;SDS011;57473;37.508;15.080;2023-05-15T07:10:58;46.72;;;12.18;;
70106;SDS011;57473;37.508;15.080;2023-05-15T07:13:26;54.03;;;13.15;;
70106;SDS011;57473;37.508;15.080;2023-05-15T07:15:53;49.58;;;13.23;;
70106;SDS011;57473;37.508;15.080;2023-05-15T07:18:20;60.97;;;13.02;;
70106;SDS011;57473;37.508;15.080;2023-05-15T07:20:48;56.83;;;13.35;;
70106;SDS011;57473;37.508;15.080;2023-05-15T07:23:15;56.60;;;13.40;;
70106;SDS011;57473;37.508;15.080;2023-05-15T07:25:42;53.58;;;14.95;;
70106;SDS011;57473;37.508;15.080;2023-05-15T07:28:11;57.20;;;14.00;;
70106;SDS011;57473;37.508;15.080;2023-05-15T07:30:39;51.65;;;13.95;;
70106;SDS011;57473;37.508;15.080;2023-05-15T07:33:07;54.20;;;13.82;;
70106;SDS011;57473;37.508;15.080;2023-05-15T07:35:34;53.55;;;13.95;;
70106;SDS011;57473;37.508;15.080;2023-05-15T07:38:06;47.20;;;13.23;;
70106;SDS011;57473;37.508;15.080;2023-05-15T07:40:33;38.17;;;11.93;;
70106;SDS011;57473;37.508;15.080;2023-05-15T07:43:01;41.10;;;9.40;;
70106;SDS011;57473;37.508;15.080;2023-05-15T07:45:28;37.75;;;9.48;;
70106;SDS011;57473;37.508;15.080;2023-05-15T07:47:56;43.05;;;10.77;;
70106;SDS011;57473;37.508;15.080;2023-05-15T07:50:24;48.90;;;11.48;;
70106;SDS011;57473;37.508;15.080;2023-05-15T07:52:51;42.50;;;11.40;;
70106;SDS011;57473;37.508;15.080;2023-05-15T07:55:19;45.70;;;10.88;;
70106;SDS011;57473;37.508;15.080;2023-05-15T07:57:46;41.33;;;9.85;;
70106;SDS011;57473;37.508;15.080;2023-05-15T08:00:19;35.80;;;10.38;;
70106;SDS011;57473;37.508;15.080;2023-05-15T08:02:47;44.53;;;9.73;;
70106;SDS011;57473;37.508;15.080;2023-05-15T08:05:15;42.03;;;10.50;;
70106;SDS011;57473;37.508;15.080;2023-05-15T08:07:42;44.20;;;9.75;;
70106;SDS011;57473;37.508;15.080;2023-05-15T08:10:10;36.00;;;10.32;;
70106;SDS011;57473;37.508;15.080;2023-05-15T08:12:37;29.20;;;9.63;;
70106;SDS011;57473;37.508;15.080;2023-05-15T08:15:05;28.27;;;8.48;;
70106;SDS011;57473;37.508;15.080;2023-05-15T08:17:32;20.52;;;6.82;;
70106;SDS011;57473;37.508;15.080;2023-05-15T08:20:00;28.38;;;7.57;;
70106;SDS011;57473;37.508;15.080;2023-05-15T08:22:27;28.45;;;7.53;;
70106;SDS011;57473;37.508;15.080;2023-05-15T08:24:56;27.83;;;6.72;;
70106;SDS011;57473;37.508;15.080;2023-05-15T08:27:25;20.95;;;6.78;;
70106;SDS011;57473;37.508;15.080;2023-05-15T08:29:53;26.88;;;6.43;;
70106;SDS011;57473;37.508;15.080;2023-05-15T08:32:20;24.65;;;6.53;;
70106;SDS011;57473;37.508;15.080;2023-05-15T08:34:48;21.58;;;6.25;;
70106;SDS011;57473;37.508;15.080;2023-05-15T08:37:15;24.05;;;4.68;;
70106;SDS011;57473;37.508;15.080;2023-05-15T08:39:42;18.15;;;4.97;;
70106;SDS011;57473;37.508;15.080;2023-05-15T08:44:44;20.95;;;5.55;;
70106;SDS011;57473;37.508;15.080;2023-05-15T08:47:12;25.17;;;4.65;;
70106;SDS011;57473;37.508;15.080;2023-05-15T08:49:47;22.38;;;5.30;;
70106;SDS011;57473;37.508;15.080;2023-05-15T08:52:17;22.35;;;5.45;;
70106;SDS011;57473;37.508;15.080;2023-05-15T08:54:45;22.55;;;5.72;;
70106;SDS011;57473;37.508;15.080;2023-05-15T08:57:14;26.90;;;5.70;;
70106;SDS011;57473;37.508;15.080;2023-05-15T08:59:42;23.80;;;5.82;;
70106;SDS011;57473;37.508;15.080;2023-05-15T09:02:10;25.10;;;5.70;;
70106;SDS011;57473;37.508;15.080;2023-05-15T09:04:37;25.48;;;6.43;;
70106;SDS011;57473;37.508;15.080;2023-05-15T09:07:05;25.60;;;5.88;;
70106;SDS011;57473;37.508;15.080;2023-05-15T09:09:33;42.13;;;15.73;;
70106;SDS011;57473;37.508;15.080;2023-05-15T09:12:01;30.95;;;7.47;;
70106;SDS011;57473;37.508;15.080;2023-05-15T09:14:29;37.35;;;7.25;;
70106;SDS011;57473;37.508;15.080;2023-05-15T09:16:56;33.72;;;6.70;;
70106;SDS011;57473;37.508;15.080;2023-05-15T09:19:24;31.65;;;6.70;;
70106;SDS011;57473;37.508;15.080;2023-05-15T09:21:53;34.30;;;7.63;;
70106;SDS011;57473;37.508;15.080;2023-05-15T09:27:03;32.45;;;7.38;;
70106;SDS011;57473;37.508;15.080;2023-05-15T09:29:32;33.17;;;7.63;;
70106;SDS011;57473;37.508;15.080;2023-05-15T09:32:08;114.20;;;45.05;;
70106;SDS011;57473;37.508;15.080;2023-05-15T09:34:39;40.08;;;7.60;;
70106;SDS011;57473;37.508;15.080;2023-05-15T09:37:08;37.53;;;9.80;;
70106;SDS011;57473;37.508;15.080;2023-05-15T09:39:40;35.88;;;7.72;;
70106;SDS011;57473;37.508;15.080;2023-05-15T09:42:10;41.55;;;7.53;;
70106;SDS011;57473;37.508;15.080;2023-05-15T09:44:39;37.50;;;9.48;;
70106;SDS011;57473;37.508;15.080;2023-05-15T09:47:08;39.47;;;7.93;;
70106;SDS011;57473;37.508;15.080;2023-05-15T09:49:37;42.28;;;7.13;;
70106;SDS011;57473;37.508;15.080;2023-05-15T09:52:08;39.75;;;7.32;;
70106;SDS011;57473;37.508;15.080;2023-05-15T09:54:36;37.38;;;7.28;;
70106;SDS011;57473;37.508;15.080;2023-05-15T09:57:08;42.50;;;7.85;;
70106;SDS011;57473;37.508;15.080;2023-05-15T09:59:43;36.60;;;7.43;;
70106;SDS011;57473;37.508;15.080;2023-05-15T10:02:25;32.85;;;8.23;;
70106;SDS011;57473;37.508;15.080;2023-05-15T10:04:58;44.15;;;8.90;;
70106;SDS011;57473;37.508;15.080;2023-05-15T10:07:32;37.65;;;7.38;;
70106;SDS011;57473;37.508;15.080;2023-05-15T10:10:02;34.00;;;8.38;;
70106;SDS011;57473;37.508;15.080;2023-05-15T10:12:30;40.45;;;8.52;;
70106;SDS011;57473;37.508;15.080;2023-05-15T10:14:58;41.67;;;7.35;;
70106;SDS011;57473;37.508;15.080;2023-05-15T10:17:27;37.55;;;7.95;;
70106;SDS011;57473;37.508;15.080;2023-05-15T10:19:58;33.95;;;6.93;;
70106;SDS011;57473;37.508;15.080;2023-05-15T10:22:34;32.20;;;8.20;;
70106;SDS011;57473;37.508;15.080;2023-05-15T10:25:25;37.50;;;7.40;;
70106;SDS011;57473;37.508;15.080;2023-05-15T10:27:53;32.33;;;7.53;;
70106;SDS011;57473;37.508;15.080;2023-05-15T10:30:21;34.42;;;7.30;;
70106;SDS011;57473;37.508;15.080;2023-05-15T10:32:51;37.60;;;8.30;;
70106;SDS011;57473;37.508;15.080;2023-05-15T10:35:19;33.65;;;7.22;;
70106;SDS011;57473;37.508;15.080;2023-05-15T10:37:47;37.03;;;6.85;;
70106;SDS011;57473;37.508;15.080;2023-05-15T10:40:16;43.15;;;10.45;;
70106;SDS011;57473;37.508;15.080;2023-05-15T10:42:44;35.58;;;7.85;;
70106;SDS011;57473;37.508;15.080;2023-05-15T10:45:13;31.10;;;7.55;;
70106;SDS011;57473;37.508;15.080;2023-05-15T10:47:41;29.40;;;6.60;;
70106;SDS011;57473;37.508;15.080;2023-05-15T10:50:10;40.58;;;7.95;;
70106;SDS011;57473;37.508;15.080;2023-05-15T10:52:39;47.47;;;7.55;;
70106;SDS011;57473;37.508;15.080;2023-05-15T10:55:08;38.45;;;7.55;;
70106;SDS011;57473;37.508;15.080;2023-05-15T10:57:39;40.40;;;9.32;;
70106;SDS011;57473;37.508;15.080;2023-05-15T11:02:50;36.08;;;8.63;;
70106;SDS011;57473;37.508;15.080;2023-05-15T11:05:23;36.15;;;7.32;;
70106;SDS011;57473;37.508;15.080;2023-05-15T11:10:40;33.13;;;6.85;;
70106;SDS011;57473;37.508;15.080;2023-05-15T11:13:08;35.88;;;6.85;;
70106;SDS011;57473;37.508;15.080;2023-05-15T11:15:41;36.05;;;6.65;;
70106;SDS011;57473;37.508;15.080;2023-05-15T11:18:10;58.33;;;16.20;;
70106;SDS011;57473;37.508;15.080;2023-05-15T11:20:39;35.38;;;7.68;;
70106;SDS011;57473;37.508;15.080;2023-05-15T11:23:21;40.35;;;6.63;;
70106;SDS011;57473;37.508;15.080;2023-05-15T11:25:52;40.28;;;6.25;;
70106;SDS011;57473;37.508;15.080;2023-05-15T11:28:22;30.73;;;7.38;;
70106;SDS011;57473;37.508;15.080;2023-05-15T11:30:51;36.25;;;7.00;;
70106;SDS011;57473;37.508;15.080;2023-05-15T11:33:25;31.60;;;6.78;;
70106;SDS011;57473;37.508;15.080;2023-05-15T11:35:57;31.83;;;6.30;;
70106;SDS011;57473;37.508;15.080;2023-05-15T11:38:26;35.17;;;7.57;;
70106;SDS011;57473;37.508;15.080;2023-05-15T11:40:57;36.45;;;6.53;;
70106;SDS011;57473;37.508;15.080;2023-05-15T11:43:29;29.65;;;6.05;;
70106;SDS011;57473;37.508;15.080;2023-05-15T11:48:40;40.90;;;6.47;;
70106;SDS011;57473;37.508;15.080;2023-05-15T11:51:14;32.65;;;6.55;;
70106;SDS011;57473;37.508;15.080;2023-05-15T11:53:51;34.25;;;6.93;;
70106;SDS011;57473;37.508;15.080;2023-05-15T11:56:20;35.97;;;8.63;;
70106;SDS011;57473;37.508;15.080;2023-05-15T11:58:54;33.30;;;7.88;;
70106;SDS011;57473;37.508;15.080;2023-05-15T12:01:25;40.42;;;11.32;;
70106;SDS011;57473;37.508;15.080;2023-05-15T12:03:54;37.97;;;7.20;;
70106;SDS011;57473;37.508;15.080;2023-05-15T12:06:22;32.45;;;6.03;;
70106;SDS011;57473;37.508;15.080;2023-05-15T12:08:50;41.00;;;6.95;;
70106;SDS011;57473;37.508;15.080;2023-05-15T12:11:39;39.15;;;8.80;;
70106;SDS011;57473;37.508;15.080;2023-05-15T12:14:09;36.03;;;6.82;;
70106;SDS011;57473;37.508;15.080;2023-05-15T12:16:38;41.42;;;8.65;;
70106;SDS011;57473;37.508;15.080;2023-05-15T12:19:05;36.97;;;7.75;;
70106;SDS011;57473;37.508;15.080;2023-05-15T12:21:33;45.97;;;6.88;;
70106;SDS011;57473;37.508;15.080;2023-05-15T12:24:03;37.63;;;7.57;;
70106;SDS011;57473;37.508;15.080;2023-05-15T12:26:33;40.40;;;6.97;;
70106;SDS011;57473;37.508;15.080;2023-05-15T12:29:02;28.55;;;6.40;;
70106;SDS011;57473;37.508;15.080;2023-05-15T12:31:30;29.48;;;5.47;;
70106;SDS011;57473;37.508;15.080;2023-05-15T12:34:00;43.92;;;7.03;;
70106;SDS011;57473;37.508;15.080;2023-05-15T12:36:28;28.73;;;6.75;;
70106;SDS011;57473;37.508;15.080;2023-05-15T12:38:56;30.55;;;6.60;;
70106;SDS011;57473;37.508;15.080;2023-05-15T12:41:27;29.58;;;7.00;;
70106;SDS011;57473;37.508;15.080;2023-05-15T12:43:54;29.45;;;6.38;;
70106;SDS011;57473;37.508;15.080;2023-05-15T12:46:22;29.73;;;5.63;;
70106;SDS011;57473;37.508;15.080;2023-05-15T12:48:59;23.85;;;4.53;;
70106;SDS011;57473;37.508;15.080;2023-05-15T12:51:26;21.95;;;3.85;;
70106;SDS011;57473;37.508;15.080;2023-05-15T12:53:55;15.95;;;4.15;;
70106;SDS011;57473;37.508;15.080;2023-05-15T12:56:23;27.90;;;4.90;;
70106;SDS011;57473;37.508;15.080;2023-05-15T12:58:51;22.25;;;4.32;;
70106;SDS011;57473;37.508;15.080;2023-05-15T13:01:20;19.33;;;4.15;;
70106;SDS011;57473;37.508;15.080;2023-05-15T13:03:48;22.50;;;6.75;;
70106;SDS011;57473;37.508;15.080;2023-05-15T13:06:16;25.05;;;4.75;;
70106;SDS011;57473;37.508;15.080;2023-05-15T13:08:44;20.70;;;4.50;;
70106;SDS011;57473;37.508;15.080;2023-05-15T13:11:13;29.92;;;5.32;;
70106;SDS011;57473;37.508;15.080;2023-05-15T13:13:42;22.88;;;4.10;;
70106;SDS011;57473;37.508;15.080;2023-05-15T13:16:21;22.42;;;4.88;;
70106;SDS011;57473;37.508;15.080;2023-05-15T13:18:55;17.30;;;3.97;;
70106;SDS011;57473;37.508;15.080;2023-05-15T13:21:26;26.45;;;5.28;;
70106;SDS011;57473;37.508;15.080;2023-05-15T13:23:54;26.88;;;4.47;;
70106;SDS011;57473;37.508;15.080;2023-05-15T13:26:21;20.20;;;4.97;;
70106;SDS011;57473;37.508;15.080;2023-05-15T13:28:48;22.38;;;5.00;;
70106;SDS011;57473;37.508;15.080;2023-05-15T13:31:16;20.27;;;4.43;;
70106;SDS011;57473;37.508;15.080;2023-05-15T13:33:43;21.45;;;4.30;;
70106;SDS011;57473;37.508;15.080;2023-05-15T13:36:10;22.02;;;4.75;;
70106;SDS011;57473;37.508;15.080;2023-05-15T13:38:38;16.17;;;4.53;;
70106;SDS011;57473;37.508;15.080;2023-05-15T13:41:08;24.67;;;7.57;;
70106;SDS011;57473;37.508;15.080;2023-05-15T13:43:38;23.40;;;4.85;;
70106;SDS011;57473;37.508;15.080;2023-05-15T13:46:05;20.63;;;4.10;;
70106;SDS011;57473;37.508;15.080;2023-05-15T13:48:37;20.27;;;4.95;;
70106;SDS011;57473;37.508;15.080;2023-05-15T13:51:05;22.75;;;5.53;;
70106;SDS011;57473;37.508;15.080;2023-05-15T13:53:33;26.67;;;5.35;;
70106;SDS011;57473;37.508;15.080;2023-05-15T13:56:01;18.27;;;4.50;;
70106;SDS011;57473;37.508;15.080;2023-05-15T13:58:32;19.90;;;4.22;;
70106;SDS011;57473;37.508;15.080;2023-05-15T14:01:01;20.42;;;3.97;;
70106;SDS011;57473;37.508;15.080;2023-05-15T14:03:33;23.63;;;4.45;;
70106;SDS011;57473;37.508;15.080;2023-05-15T14:06:01;24.50;;;4.53;;
70106;SDS011;57473;37.508;15.080;2023-05-15T14:08:29;24.92;;;4.32;;
70106;SDS011;57473;37.508;15.080;2023-05-15T14:10:56;21.70;;;5.38;;
70106;SDS011;57473;37.508;15.080;2023-05-15T14:13:23;25.02;;;5.28;;
70106;SDS011;57473;37.508;15.080;2023-05-15T14:15:51;25.77;;;4.78;;
70106;SDS011;57473;37.508;15.080;2023-05-15T14:18:19;18.58;;;4.63;;
70106;SDS011;57473;37.508;15.080;2023-05-15T14:20:46;22.20;;;6.07;;
70106;SDS011;57473;37.508;15.080;2023-05-15T14:23:14;20.85;;;4.65;;
70106;SDS011;57473;37.508;15.080;2023-05-15T14:25:41;22.83;;;4.80;;
70106;SDS011;57473;37.508;15.080;2023-05-15T14:28:08;20.13;;;4.75;;
70106;SDS011;57473;37.508;15.080;2023-05-15T14:30:36;17.33;;;4.32;;
70106;SDS011;57473;37.508;15.080;2023-05-15T14:35:35;24.80;;;4.28;;
70106;SDS011;57473;37.508;15.080;2023-05-15T14:38:03;22.92;;;4.40;;
70106;SDS011;57473;37.508;15.080;2023-05-15T14:40:30;22.23;;;6.25;;
70106;SDS011;57473;37.508;15.080;2023-05-15T14:42:58;22.17;;;4.45;;
70106;SDS011;57473;37.508;15.080;2023-05-15T14:45:25;18.58;;;5.47;;
70106;SDS011;57473;37.508;15.080;2023-05-15T14:47:53;27.25;;;4.93;;
70106;SDS011;57473;37.508;15.080;2023-05-15T14:50:20;21.20;;;4.68;;